Time;durP1;ratioP1;P1;durP2;ratioP2;P2;SDS_P1;SDS_P2;PMS_P1;PMS_P2;Temp;Humidity;BMP_temperature;BMP_pressure;BME280_temperature;BME280_humidity;BME280_pressure;Samples;Min_cycle;Max_cycle;Signal;HPM_P1;HPM_P2
2021/05/11 00:00:18;;;;;;;8.52;2.10;;;17.90;86.30;;;;;;12036434;28;20060;-74
2021/05/11 00:06:05;;;;;;;5.65;1.50;;;17.90;86.80;;;;;;12034210;27;20053;-73
2021/05/11 00:11:52;;;;;;;5.60;1.70;;;17.80;86.80;;;;;;12031709;27;20052;-74
2021/05/11 00:17:40;;;;;;;4.15;1.48;;;17.80;87.40;;;;;;12033556;27;20049;-73
2021/05/11 00:23:26;;;;;;;4.28;1.52;;;17.90;86.10;;;;;;12036656;27;20048;-79
2021/05/11 00:29:12;;;;;;;5.18;1.38;;;17.90;85.80;;;;;;12038259;27;21179;-74
2021/05/11 00:35:00;;;;;;;4.32;1.55;;;17.80;85.60;;;;;;12034441;27;20044;-73
2021/05/11 00:40:46;;;;;;;2.22;1.35;;;17.70;85.80;;;;;;12031297;27;20087;-74
2021/05/11 00:46:34;;;;;;;3.28;1.48;;;17.60;87.10;;;;;;12033245;28;20044;-72
2021/05/11 00:52:22;;;;;;;4.40;1.65;;;17.60;85.90;;;;;;12035288;27;20059;-73
2021/05/11 00:58:11;;;;;;;3.75;1.50;;;17.60;85.50;;;;;;12032075;28;20053;-76
2021/05/11 01:03:57;;;;;;;6.40;1.60;;;17.50;85.80;;;;;;12042202;27;20084;-78
2021/05/11 01:09:45;;;;;;;4.13;1.67;;;17.40;86.30;;;;;;12036123;27;20064;-79
2021/05/11 01:15:34;;;;;;;7.40;1.50;;;17.20;86.50;;;;;;12036757;27;20527;-77
2021/05/11 01:21:30;;;;;;;7.72;1.88;;;17.10;87.30;;;;;;12037767;27;20055;-78
2021/05/11 01:27:29;;;;;;;5.28;1.60;;;17.10;87.80;;;;;;12036588;27;20045;-78
2021/05/11 01:51:49;;;;;;;6.43;1.35;;;17.00;87.00;;;;;;12039495;27;20052;-78
2021/05/11 01:58:08;;;;;;;1.88;1.35;;;16.90;86.10;;;;;;12037776;27;20076;-78
2021/05/11 02:10:31;;;;;;;6.70;1.70;;;16.60;87.30;;;;;;12047158;27;20044;-78
2021/05/11 02:22:44;;;;;;;6.22;1.50;;;16.60;87.20;;;;;;12030260;27;20041;-78
2021/05/11 02:28:30;;;;;;;3.83;1.63;;;16.60;87.10;;;;;;12035716;28;20735;-79
2021/05/11 02:34:17;;;;;;;7.53;1.83;;;16.50;87.20;;;;;;12038159;27;20048;-78
2021/05/11 02:40:06;;;;;;;7.78;1.67;;;16.50;87.50;;;;;;12030265;27;20085;-78
2021/05/11 02:45:53;;;;;;;4.53;1.98;;;16.50;87.50;;;;;;12034179;27;20132;-78
2021/05/11 02:51:40;;;;;;;9.43;2.08;;;16.50;87.40;;;;;;12032615;28;20059;-79
2021/05/11 02:57:27;;;;;;;7.30;1.70;;;16.30;87.70;;;;;;12039710;28;20059;-79
2021/05/11 03:03:13;;;;;;;6.35;1.58;;;16.40;86.60;;;;;;12042936;28;20435;-80
2021/05/11 06:30:57;;;;;;;10.63;3.10;;;15.30;99.90;;;;;;12120829;27;20125;-80
2021/05/11 06:36:44;;;;;;;10.40;2.92;;;16.00;99.90;;;;;;12133611;27;20066;-80
2021/05/11 06:42:30;;;;;;;9.07;3.10;;;16.40;98.90;;;;;;12145430;27;20047;-79
2021/05/11 06:48:20;;;;;;;13.98;3.30;;;16.60;98.60;;;;;;12134605;28;20112;-79
2021/05/11 06:54:06;;;;;;;7.75;2.78;;;16.80;98.90;;;;;;12137598;27;20597;-79
2021/05/11 06:59:52;;;;;;;5.68;2.50;;;17.10;98.40;;;;;;12141953;27;20056;-79
2021/05/11 07:05:40;;;;;;;9.13;2.80;;;17.30;98.20;;;;;;12139783;27;20431;-78
2021/05/11 07:13:05;;;;;;;13.23;2.63;;;17.50;97.80;;;;;;12131627;27;20051;-76
2021/05/11 07:17:35;;;;;;;9.32;2.65;;;17.80;96.60;;;;;;12139405;28;20131;-79
2021/05/11 07:23:22;;;;;;;10.90;2.03;;;17.60;93.60;;;;;;12122116;27;20588;-78
2021/05/11 07:29:21;;;;;;;12.13;2.80;;;17.40;93.30;;;;;;12077071;27;20059;-80
2021/05/11 07:35:08;;;;;;;9.82;2.30;;;17.00;93.60;;;;;;12073315;28;20045;-79
2021/05/11 07:40:56;;;;;;;11.20;2.70;;;17.00;94.00;;;;;;12058119;28;20110;-80
2021/05/11 07:46:50;;;;;;;9.63;2.00;;;16.80;94.00;;;;;;12049167;28;20098;-79
2021/05/11 08:04:57;;;;;;;8.73;2.13;;;17.20;92.40;;;;;;12036583;28;20045;-79
2021/05/11 08:16:56;;;;;;;8.57;2.03;;;17.60;91.10;;;;;;11980006;28;20099;-78
2021/05/11 08:22:52;;;;;;;11.10;2.40;;;17.90;90.50;;;;;;11984512;28;20053;-80
2021/05/11 08:28:42;;;;;;;9.60;2.08;;;18.10;90.50;;;;;;11947088;28;20083;-78
2021/05/11 08:34:30;;;;;;;11.68;2.50;;;18.40;90.20;;;;;;11942740;28;20044;-78
2021/05/11 08:40:16;;;;;;;5.80;1.70;;;18.60;90.20;;;;;;11983647;28;20064;-78
2021/05/11 08:46:05;;;;;;;11.13;1.95;;;18.60;89.60;;;;;;11984720;28;20431;-79
2021/05/11 08:51:56;;;;;;;6.78;2.17;;;18.60;89.00;;;;;;12012484;28;20070;-77
2021/05/11 09:28:31;;;;;;;14.60;3.10;;;18.10;91.50;;;;;;12043456;28;20052;-78
2021/05/11 09:34:27;;;;;;;8.63;2.15;;;18.20;92.80;;;;;;12036929;28;20102;-79
2021/05/11 09:59:15;;;;;;;5.82;1.95;;;17.90;96.20;;;;;;12041009;28;20048;-78
2021/05/11 10:48:23;;;;;;;8.85;2.13;;;18.60;96.70;;;;;;11931729;28;20579;-78
2021/05/11 10:54:10;;;;;;;12.10;2.25;;;18.90;95.60;;;;;;11928633;28;20668;-78
2021/05/11 11:00:09;;;;;;;10.30;2.00;;;19.00;94.40;;;;;;11933109;28;20057;-79
2021/05/11 11:05:57;;;;;;;10.93;1.92;;;19.10;94.10;;;;;;11947531;28;21045;-82
2021/05/11 11:11:45;;;;;;;8.52;1.70;;;19.20;92.80;;;;;;11939239;28;20725;-81
2021/05/11 11:17:40;;;;;;;9.98;2.22;;;19.20;91.80;;;;;;11960857;28;20084;-77
2021/05/11 11:23:35;;;;;;;9.93;1.95;;;19.10;91.20;;;;;;11990219;28;20056;-76
2021/05/11 11:29:24;;;;;;;8.75;2.30;;;18.80;92.30;;;;;;12041432;28;20072;-81
2021/05/11 11:35:13;;;;;;;10.52;1.60;;;17.60;92.30;;;;;;12055589;28;20052;-78
2021/05/11 11:41:08;;;;;;;15.32;1.83;;;17.20;95.80;;;;;;12054428;28;20048;-78
2021/05/11 11:47:03;;;;;;;7.07;1.60;;;16.90;97.50;;;;;;12044869;28;20048;-77
2021/05/11 11:53:00;;;;;;;10.57;2.30;;;16.80;96.50;;;;;;12048442;28;20057;-78
2021/05/11 11:58:49;;;;;;;8.50;1.70;;;17.00;97.50;;;;;;12054467;28;20051;-81
2021/05/11 12:04:38;;;;;;;10.15;1.90;;;17.00;99.10;;;;;;12086081;28;20479;-77
2021/05/11 12:10:26;;;;;;;8.90;1.77;;;16.90;99.90;;;;;;12072369;28;20548;-81
2021/05/11 12:16:16;;;;;;;10.00;2.13;;;17.20;99.90;;;;;;12059631;28;20051;-78
2021/05/11 12:22:05;;;;;;;11.75;2.03;;;17.50;99.90;;;;;;12058870;28;20075;-80
2021/05/11 12:27:52;;;;;;;8.80;1.23;;;17.60;99.90;;;;;;12052563;28;20094;-81
2021/05/11 12:33:40;;;;;;;4.15;1.10;;;17.80;96.60;;;;;;12052660;28;20044;-80
2021/05/11 12:39:34;;;;;;;2.42;0.80;;;17.90;93.60;;;;;;12061974;28;20062;-79
2021/05/11 12:45:22;;;;;;;1.77;0.80;;;17.80;94.30;;;;;;12056142;28;20059;-80
2021/05/11 12:51:09;;;;;;;0.40;0.40;;;17.80;92.10;;;;;;12052153;28;20454;-80
2021/05/11 12:57:11;;;;;;;1.55;0.70;;;17.90;89.70;;;;;;12047001;28;20147;-82
2021/05/11 13:03:09;;;;;;;2.53;0.55;;;17.60;88.50;;;;;;12052345;28;20067;-79
2021/05/11 13:15:29;;;;;;;6.53;0.90;;;18.30;90.40;;;;;;12053195;28;20040;-82
2021/05/11 13:27:29;;;;;;;1.55;0.70;;;18.50;88.40;;;;;;12039774;28;20102;-82
2021/05/11 13:33:25;;;;;;;3.90;1.02;;;18.20;85.90;;;;;;12060086;28;20123;-82
2021/05/11 13:39:13;;;;;;;2.85;0.93;;;18.40;87.60;;;;;;12053049;28;20048;-85
2021/05/11 13:45:03;;;;;;;2.58;0.68;;;18.60;87.40;;;;;;12062366;28;20522;-77
2021/05/11 13:50:59;;;;;;;1.65;0.70;;;18.40;86.70;;;;;;12083815;28;20059;-81
2021/05/11 13:56:59;;;;;;;5.15;1.02;;;18.50;86.20;;;;;;12063741;28;20044;-81
2021/05/11 14:02:49;;;;;;;1.25;0.63;;;18.30;88.20;;;;;;12052306;28;20044;-81
2021/05/11 14:08:35;;;;;;;5.35;0.90;;;18.00;89.60;;;;;;12052506;28;20128;-80
2021/05/11 14:14:23;;;;;;;1.95;0.75;;;17.70;91.30;;;;;;12053253;28;20201;-79
2021/05/11 14:20:11;;;;;;;2.15;0.50;;;17.90;92.00;;;;;;12057181;28;20075;-80
2021/05/11 14:25:57;;;;;;;3.80;0.60;;;18.20;90.60;;;;;;12048280;28;20467;-81
2021/05/11 14:31:45;;;;;;;2.72;0.90;;;18.40;86.00;;;;;;12043583;28;20053;-80
2021/05/11 14:37:31;;;;;;;2.80;0.73;;;18.20;83.60;;;;;;12043977;28;20567;-81
2021/05/11 14:43:17;;;;;;;2.90;1.02;;;18.30;84.80;;;;;;12043627;28;20057;-80
2021/05/11 14:49:04;;;;;;;3.28;1.08;;;18.60;83.80;;;;;;12050141;28;20553;-81
2021/05/11 14:54:51;;;;;;;5.18;1.20;;;18.60;82.60;;;;;;12060826;28;20056;-81
2021/05/11 15:00:37;;;;;;;5.65;1.55;;;18.50;82.20;;;;;;12053500;28;20629;-80
2021/05/11 15:06:24;;;;;;;4.68;1.48;;;18.40;84.10;;;;;;12053082;28;20396;-81
2021/05/11 15:12:11;;;;;;;9.45;1.27;;;18.40;85.80;;;;;;12053153;28;20048;-81
2021/05/11 15:18:03;;;;;;;9.98;1.77;;;18.40;84.60;;;;;;12050332;28;20423;-80
2021/05/11 15:23:51;;;;;;;4.82;1.73;;;18.10;85.70;;;;;;12052177;28;20056;-81
2021/05/11 15:29:38;;;;;;;7.00;1.70;;;18.40;86.40;;;;;;12053801;28;20052;-80
2021/05/11 15:35:26;;;;;;;6.90;1.92;;;18.40;85.60;;;;;;12065024;28;20094;-80
2021/05/11 15:41:13;;;;;;;4.28;1.27;;;18.40;86.00;;;;;;12032041;28;20391;-80
2021/05/11 15:47:00;;;;;;;7.43;1.83;;;18.80;85.10;;;;;;12054981;28;20058;-80
2021/05/11 15:52:46;;;;;;;3.72;1.48;;;19.00;85.00;;;;;;12050519;28;20456;-82
2021/05/11 15:59:05;;;;;;;8.63;1.70;;;19.60;83.90;;;;;;12056735;28;20520;-81
2021/05/11 16:04:51;;;;;;;6.15;2.10;;;19.80;82.60;;;;;;12045812;28;20559;-82
2021/05/11 16:10:39;;;;;;;3.88;1.52;;;20.00;81.70;;;;;;12067426;28;20048;-80
2021/05/11 16:16:31;;;;;;;6.45;1.70;;;20.40;82.70;;;;;;12049611;28;20052;-78
2021/05/11 16:22:18;;;;;;;4.95;1.60;;;20.60;80.20;;;;;;12053035;28;20056;-79
2021/05/11 16:28:07;;;;;;;48.38;29.90;;;21.40;80.80;;;;;;12034537;28;20040;-80
2021/05/11 16:33:54;;;;;;;6.35;3.05;;;22.50;77.70;;;;;;12008749;28;20132;-79
2021/05/11 16:39:42;;;;;;;5.82;1.70;;;24.30;69.70;;;;;;11999534;28;20163;-79
2021/05/11 16:45:30;;;;;;;5.80;1.70;;;25.90;61.10;;;;;;11994120;28;20061;-80
2021/05/11 16:51:17;;;;;;;2.50;0.90;;;27.30;53.70;;;;;;11979160;28;20144;-79
2021/05/11 16:57:05;;;;;;;5.90;1.40;;;28.10;48.60;;;;;;12000490;28;20055;-80
2021/05/11 17:02:52;;;;;;;2.75;1.00;;;28.70;45.60;;;;;;12005811;28;20150;-80
2021/05/11 17:08:39;;;;;;;5.93;1.50;;;28.90;44.60;;;;;;11984612;28;20276;-82
2021/05/11 17:14:26;;;;;;;2.53;0.70;;;29.00;44.70;;;;;;11959738;28;20068;-81
2021/05/11 17:20:14;;;;;;;2.38;1.00;;;28.60;46.00;;;;;;11981065;28;20041;-81
2021/05/11 17:26:02;;;;;;;2.50;1.25;;;29.90;43.90;;;;;;11941274;28;20060;-79
2021/05/11 17:31:49;;;;;;;2.63;0.88;;;30.90;40.50;;;;;;11995707;28;20131;-79
2021/05/11 17:37:37;;;;;;;4.93;1.70;;;31.20;40.80;;;;;;12023397;28;20041;-78
2021/05/11 17:43:25;;;;;;;2.47;1.00;;;30.10;41.90;;;;;;12017713;28;20053;-79
2021/05/11 17:49:11;;;;;;;12.10;8.40;;;30.30;41.60;;;;;;12037706;28;20199;-84
2021/05/11 17:54:58;;;;;;;2.72;1.48;;;29.10;43.10;;;;;;12046300;28;20541;-77
2021/05/11 18:00:46;;;;;;;2.65;1.50;;;26.20;48.70;;;;;;12043049;28;20747;-78
2021/05/11 18:06:32;;;;;;;6.30;1.92;;;25.00;51.30;;;;;;12034560;28;20040;-77
2021/05/11 18:12:18;;;;;;;9.10;1.92;;;23.60;54.50;;;;;;12037817;28;20810;-78
2021/05/11 18:18:06;;;;;;;4.05;1.48;;;23.30;55.50;;;;;;12040951;28;20738;-78
2021/05/11 18:23:54;;;;;;;6.95;1.58;;;22.50;58.20;;;;;;12039730;28;20060;-79
2021/05/11 18:29:41;;;;;;;5.72;1.65;;;21.90;60.80;;;;;;12031838;28;20098;-78
2021/05/11 18:35:30;;;;;;;3.42;1.60;;;21.20;62.80;;;;;;12036312;28;20113;-78
2021/05/11 18:41:18;;;;;;;4.82;1.58;;;20.50;65.80;;;;;;12057599;28;20076;-78
2021/05/11 18:47:04;;;;;;;4.28;1.48;;;20.00;67.50;;;;;;12041050;28;20102;-79
2021/05/11 18:52:52;;;;;;;9.50;5.10;;;19.70;69.10;;;;;;12041707;28;20064;-78
2021/05/11 18:58:38;;;;;;;7.88;1.92;;;19.60;71.40;;;;;;12055318;28;20041;-78
2021/05/11 19:04:25;;;;;;;5.50;1.50;;;19.50;71.50;;;;;;12042414;28;20052;-79
2021/05/11 19:10:14;;;;;;;7.60;1.70;;;19.40;73.10;;;;;;12044956;28;20068;-79
2021/05/11 19:16:05;;;;;;;4.95;1.50;;;19.20;74.10;;;;;;12033805;28;20053;-81
2021/05/11 19:21:51;;;;;;;4.28;2.00;;;19.20;75.30;;;;;;12047669;28;20912;-78
2021/05/11 19:27:39;;;;;;;6.95;1.67;;;19.20;75.90;;;;;;12043779;28;20052;-79
2021/05/11 19:33:29;;;;;;;4.90;1.60;;;19.00;77.00;;;;;;12045478;28;20044;-78
2021/05/11 19:39:19;;;;;;;11.77;2.30;;;19.00;77.50;;;;;;12056057;28;20105;-78
2021/05/11 19:45:08;;;;;;;6.30;1.65;;;19.00;79.00;;;;;;12041377;28;20094;-78
2021/05/11 19:50:58;;;;;;;6.22;1.73;;;18.90;79.00;;;;;;12048136;28;20109;-79
2021/05/11 19:56:45;;;;;;;13.48;1.98;;;18.80;79.60;;;;;;12044773;28;20183;-78
2021/05/11 20:02:32;;;;;;;2.33;1.30;;;18.70;79.70;;;;;;12044902;28;20044;-81
2021/05/11 20:08:19;;;;;;;3.85;1.48;;;18.00;84.80;;;;;;12062203;28;20088;-79
2021/05/11 20:14:06;;;;;;;9.40;1.90;;;17.90;89.30;;;;;;12056479;28;20064;-81
2021/05/11 20:19:53;;;;;;;6.97;2.47;;;17.80;90.90;;;;;;12051458;28;20082;-81
2021/05/11 20:25:39;;;;;;;9.23;2.08;;;17.90;92.90;;;;;;12053026;28;21839;-80
2021/05/11 20:31:26;;;;;;;9.48;2.30;;;18.00;93.50;;;;;;12059610;28;20057;-79
2021/05/11 20:37:20;;;;;;;9.35;1.85;;;18.00;94.10;;;;;;12051278;28;20044;-79
2021/05/11 20:43:06;;;;;;;7.57;2.35;;;17.90;94.20;;;;;;12063180;28;20048;-80
2021/05/11 20:48:53;;;;;;;8.98;2.25;;;17.80;93.30;;;;;;12057554;28;20052;-80
2021/05/11 20:54:40;;;;;;;4.10;1.30;;;17.60;91.40;;;;;;12047793;28;20507;-81
2021/05/11 21:00:27;;;;;;;4.25;1.55;;;17.50;91.80;;;;;;12048128;28;20071;-79
2021/05/11 21:06:14;;;;;;;7.47;1.30;;;17.50;90.70;;;;;;12033952;28;20114;-76
2021/05/11 21:12:01;;;;;;;4.82;1.17;;;17.20;88.70;;;;;;12032399;28;20056;-79
2021/05/11 21:17:48;;;;;;;10.55;1.70;;;17.10;90.10;;;;;;12046988;28;20041;-78
2021/05/11 21:23:34;;;;;;;3.72;0.93;;;17.10;89.00;;;;;;12041398;28;20057;-80
2021/05/11 21:29:21;;;;;;;5.68;1.02;;;16.90;87.20;;;;;;12052813;28;20049;-79
2021/05/11 21:35:09;;;;;;;5.05;1.08;;;16.70;89.50;;;;;;12047936;28;20060;-79
2021/05/11 21:40:55;;;;;;;3.00;0.80;;;16.70;88.60;;;;;;12037073;28;20137;-78
2021/05/11 21:46:42;;;;;;;4.63;0.80;;;16.80;90.20;;;;;;12044655;28;20121;-80
2021/05/11 21:52:29;;;;;;;2.58;0.85;;;16.80;88.80;;;;;;12049349;28;20404;-80
2021/05/11 21:58:16;;;;;;;3.55;0.73;;;16.70;86.90;;;;;;12059680;28;20083;-79
2021/05/11 22:04:13;;;;;;;2.95;1.08;;;16.70;86.70;;;;;;12115493;27;20048;-79
2021/05/11 22:10:00;;;;;;;2.92;1.27;;;16.70;89.10;;;;;;12100739;28;20062;-81
2021/05/11 22:15:49;;;;;;;5.70;1.33;;;16.60;89.90;;;;;;12070605;28;20499;-79
2021/05/11 22:21:38;;;;;;;6.80;1.65;;;16.50;89.50;;;;;;12071865;28;21107;-79
2021/05/11 22:27:24;;;;;;;6.45;1.30;;;16.40;91.00;;;;;;12052467;28;20092;-79
2021/05/11 22:33:12;;;;;;;4.10;1.35;;;16.40;91.00;;;;;;12074756;28;20544;-79
2021/05/11 22:39:00;;;;;;;2.97;1.30;;;16.40;90.80;;;;;;12057888;28;20048;-79
2021/05/11 22:45:01;;;;;;;6.00;1.40;;;16.40;90.80;;;;;;12090395;28;20143;-80
2021/05/11 22:50:49;;;;;;;2.47;0.80;;;16.30;91.10;;;;;;12066924;28;20117;-76
2021/05/11 22:56:37;;;;;;;4.68;1.10;;;16.20;91.00;;;;;;12035846;28;20201;-77
2021/05/11 23:02:23;;;;;;;6.85;1.65;;;16.20;91.10;;;;;;12040396;28;20061;-76
2021/05/11 23:08:10;;;;;;;10.70;1.60;;;16.10;90.80;;;;;;12052725;28;20049;-81
2021/05/11 23:13:57;;;;;;;5.97;1.48;;;16.00;91.30;;;;;;12057599;28;20072;-81
2021/05/11 23:19:44;;;;;;;15.70;1.95;;;16.00;91.20;;;;;;12057546;28;20219;-78
2021/05/11 23:25:32;;;;;;;6.25;1.20;;;15.90;91.10;;;;;;12057859;28;20049;-80
2021/05/11 23:31:19;;;;;;;6.53;1.35;;;15.90;91.30;;;;;;12050053;28;20083;-78
2021/05/11 23:37:06;;;;;;;13.82;2.42;;;15.90;90.90;;;;;;12062099;28;20040;-80
2021/05/11 23:42:53;;;;;;;14.75;2.30;;;15.80;90.80;;;;;;12077329;28;20055;-80
2021/05/11 23:48:40;;;;;;;11.77;1.58;;;15.70;91.10;;;;;;12051000;28;20063;-79
2021/05/11 23:54:27;;;;;;;13.30;1.80;;;15.70;90.90;;;;;;12044677;28;20056;-79
